sensor_id;sensor_type;location;lat;lon;timestamp;temperature;humidity
37702;DHT22;23548;51.196;6.838;2022-11-23T00:01:15;9.20;99.90
37702;DHT22;23548;51.196;6.838;2022-11-23T00:03:43;9.20;99.90
37702;DHT22;23548;51.196;6.838;2022-11-23T00:06:08;9.30;99.90
37702;DHT22;23548;51.196;6.838;2022-11-23T00:08:34;9.20;99.90
37702;DHT22;23548;51.196;6.838;2022-11-23T00:11:00;9.20;99.90
37702;DHT22;23548;51.196;6.838;2022-11-23T00:13:26;9.20;99.90
37702;DHT22;23548;51.196;6.838;2022-11-23T00:15:52;9.20;99.90
37702;DHT22;23548;51.196;6.838;2022-11-23T00:18:18;9.20;99.90
37702;DHT22;23548;51.196;6.838;2022-11-23T00:20:44;9.20;99.90
37702;DHT22;23548;51.196;6.838;2022-11-23T00:23:10;9.20;99.90
37702;DHT22;23548;51.196;6.838;2022-11-23T00:25:36;9.20;99.90
37702;DHT22;23548;51.196;6.838;2022-11-23T00:28:01;9.10;99.90
37702;DHT22;23548;51.196;6.838;2022-11-23T00:30:27;9.20;99.90
37702;DHT22;23548;51.196;6.838;2022-11-23T00:32:56;9.10;99.90
37702;DHT22;23548;51.196;6.838;2022-11-23T00:35:22;9.10;99.90
37702;DHT22;23548;51.196;6.838;2022-11-23T00:37:48;9.10;99.90
37702;DHT22;23548;51.196;6.838;2022-11-23T00:40:14;9.10;99.90
37702;DHT22;23548;51.196;6.838;2022-11-23T00:42:41;9.10;99.90
37702;DHT22;23548;51.196;6.838;2022-11-23T00:45:07;9.10;99.90
37702;DHT22;23548;51.196;6.838;2022-11-23T00:47:33;9.10;99.90
37702;DHT22;23548;51.196;6.838;2022-11-23T00:49:59;9.20;99.90
37702;DHT22;23548;51.196;6.838;2022-11-23T00:52:24;9.20;99.90
37702;DHT22;23548;51.196;6.838;2022-11-23T00:54:50;9.20;99.90
37702;DHT22;23548;51.196;6.838;2022-11-23T00:57:16;9.20;99.90
37702;DHT22;23548;51.196;6.838;2022-11-23T00:59:41;9.20;99.90
37702;DHT22;23548;51.196;6.838;2022-11-23T01:02:07;9.30;99.90
37702;DHT22;23548;51.196;6.838;2022-11-23T01:04:33;9.20;99.90
37702;DHT22;23548;51.196;6.838;2022-11-23T01:06:59;9.20;99.90
37702;DHT22;23548;51.196;6.838;2022-11-23T01:09:25;9.30;99.90
37702;DHT22;23548;51.196;6.838;2022-11-23T01:11:52;9.30;99.90
37702;DHT22;23548;51.196;6.838;2022-11-23T01:14:18;9.30;99.90
37702;DHT22;23548;51.196;6.838;2022-11-23T01:16:45;9.30;99.90
37702;DHT22;23548;51.196;6.838;2022-11-23T01:19:17;9.30;99.90
37702;DHT22;23548;51.196;6.838;2022-11-23T01:21:43;9.30;99.90
37702;DHT22;23548;51.196;6.838;2022-11-23T01:24:13;9.30;99.90
37702;DHT22;23548;51.196;6.838;2022-11-23T01:26:39;9.30;99.90
37702;DHT22;23548;51.196;6.838;2022-11-23T01:29:05;9.30;99.90
37702;DHT22;23548;51.196;6.838;2022-11-23T01:31:31;9.30;99.90
37702;DHT22;23548;51.196;6.838;2022-11-23T01:33:59;9.30;99.90
37702;DHT22;23548;51.196;6.838;2022-11-23T01:36:27;9.20;99.90
37702;DHT22;23548;51.196;6.838;2022-11-23T01:38:53;9.30;99.90
37702;DHT22;23548;51.196;6.838;2022-11-23T01:41:28;9.30;99.90
37702;DHT22;23548;51.196;6.838;2022-11-23T01:43:54;9.30;99.90
37702;DHT22;23548;51.196;6.838;2022-11-23T01:46:21;9.20;99.90
37702;DHT22;23548;51.196;6.838;2022-11-23T01:48:51;9.20;99.90
37702;DHT22;23548;51.196;6.838;2022-11-23T01:51:22;9.20;99.90
37702;DHT22;23548;51.196;6.838;2022-11-23T01:53:51;9.20;99.90
37702;DHT22;23548;51.196;6.838;2022-11-23T01:56:24;9.20;99.90
37702;DHT22;23548;51.196;6.838;2022-11-23T01:58:52;9.30;99.90
37702;DHT22;23548;51.196;6.838;2022-11-23T02:01:19;9.30;99.90
37702;DHT22;23548;51.196;6.838;2022-11-23T02:03:47;9.20;99.90
37702;DHT22;23548;51.196;6.838;2022-11-23T02:06:16;9.30;99.90
37702;DHT22;23548;51.196;6.838;2022-11-23T02:08:42;9.30;99.90
37702;DHT22;23548;51.196;6.838;2022-11-23T02:11:10;9.30;99.90
37702;DHT22;23548;51.196;6.838;2022-11-23T02:13:37;9.20;99.90
37702;DHT22;23548;51.196;6.838;2022-11-23T02:16:03;9.30;99.90
37702;DHT22;23548;51.196;6.838;2022-11-23T02:18:30;9.20;99.90
37702;DHT22;23548;51.196;6.838;2022-11-23T02:21:01;9.30;99.90
37702;DHT22;23548;51.196;6.838;2022-11-23T02:26:37;9.30;99.90
37702;DHT22;23548;51.196;6.838;2022-11-23T02:29:19;9.30;99.90
37702;DHT22;23548;51.196;6.838;2022-11-23T02:31:46;9.30;99.90
37702;DHT22;23548;51.196;6.838;2022-11-23T02:34:12;9.30;99.90
37702;DHT22;23548;51.196;6.838;2022-11-23T02:36:46;9.30;99.90
37702;DHT22;23548;51.196;6.838;2022-11-23T02:39:20;9.30;99.90
37702;DHT22;23548;51.196;6.838;2022-11-23T02:41:49;9.30;99.90
37702;DHT22;23548;51.196;6.838;2022-11-23T02:47:11;9.30;99.90
37702;DHT22;23548;51.196;6.838;2022-11-23T02:49:40;9.40;99.90
37702;DHT22;23548;51.196;6.838;2022-11-23T02:52:06;9.40;99.90
37702;DHT22;23548;51.196;6.838;2022-11-23T02:54:32;9.30;99.90
37702;DHT22;23548;51.196;6.838;2022-11-23T02:56:57;9.30;99.90
37702;DHT22;23548;51.196;6.838;2022-11-23T02:59:23;9.20;99.90
37702;DHT22;23548;51.196;6.838;2022-11-23T03:01:49;9.20;99.90
37702;DHT22;23548;51.196;6.838;2022-11-23T03:04:15;9.20;99.90
37702;DHT22;23548;51.196;6.838;2022-11-23T03:06:41;9.10;99.90
37702;DHT22;23548;51.196;6.838;2022-11-23T03:09:07;9.10;99.90
37702;DHT22;23548;51.196;6.838;2022-11-23T03:11:33;9.10;99.90
37702;DHT22;23548;51.196;6.838;2022-11-23T03:13:59;9.10;99.90
37702;DHT22;23548;51.196;6.838;2022-11-23T03:16:25;9.10;99.90
37702;DHT22;23548;51.196;6.838;2022-11-23T03:18:50;9.10;99.90
37702;DHT22;23548;51.196;6.838;2022-11-23T03:21:16;9.10;99.90
37702;DHT22;23548;51.196;6.838;2022-11-23T03:23:42;9.10;99.90
37702;DHT22;23548;51.196;6.838;2022-11-23T03:26:08;9.10;99.90
37702;DHT22;23548;51.196;6.838;2022-11-23T03:28:34;9.10;99.90
37702;DHT22;23548;51.196;6.838;2022-11-23T03:31:00;9.10;99.90
37702;DHT22;23548;51.196;6.838;2022-11-23T03:33:26;9.10;99.90
37702;DHT22;23548;51.196;6.838;2022-11-23T03:35:51;9.10;99.90
37702;DHT22;23548;51.196;6.838;2022-11-23T03:38:17;9.10;99.90
37702;DHT22;23548;51.196;6.838;2022-11-23T03:40:44;9.00;99.90
37702;DHT22;23548;51.196;6.838;2022-11-23T03:43:13;9.00;99.90
37702;DHT22;23548;51.196;6.838;2022-11-23T03:45:39;9.10;99.90
37702;DHT22;23548;51.196;6.838;2022-11-23T03:48:05;9.00;99.90
37702;DHT22;23548;51.196;6.838;2022-11-23T03:50:31;9.00;99.90
37702;DHT22;23548;51.196;6.838;2022-11-23T03:52:57;9.10;99.90
37702;DHT22;23548;51.196;6.838;2022-11-23T03:55:24;9.10;99.90
37702;DHT22;23548;51.196;6.838;2022-11-23T03:57:50;9.20;99.90
37702;DHT22;23548;51.196;6.838;2022-11-23T04:00:19;9.20;99.90
37702;DHT22;23548;51.196;6.838;2022-11-23T04:02:44;9.20;99.90
37702;DHT22;23548;51.196;6.838;2022-11-23T04:05:11;9.20;99.90
37702;DHT22;23548;51.196;6.838;2022-11-23T04:07:36;9.20;99.90
37702;DHT22;23548;51.196;6.838;2022-11-23T04:10:03;9.20;99.90
37702;DHT22;23548;51.196;6.838;2022-11-23T04:12:29;9.10;99.90
37702;DHT22;23548;51.196;6.838;2022-11-23T04:14:54;9.00;99.90
37702;DHT22;23548;51.196;6.838;2022-11-23T04:17:20;8.90;99.90
37702;DHT22;23548;51.196;6.838;2022-11-23T04:19:46;8.90;99.90
37702;DHT22;23548;51.196;6.838;2022-11-23T04:22:11;8.90;99.90
37702;DHT22;23548;51.196;6.838;2022-11-23T04:24:37;9.00;99.90
37702;DHT22;23548;51.196;6.838;2022-11-23T04:27:03;9.10;99.90
37702;DHT22;23548;51.196;6.838;2022-11-23T04:29:28;9.10;99.90
37702;DHT22;23548;51.196;6.838;2022-11-23T04:31:54;9.20;99.90
37702;DHT22;23548;51.196;6.838;2022-11-23T04:34:20;9.10;99.90
37702;DHT22;23548;51.196;6.838;2022-11-23T04:36:46;9.00;99.90
37702;DHT22;23548;51.196;6.838;2022-11-23T04:39:12;8.90;99.90
37702;DHT22;23548;51.196;6.838;2022-11-23T04:41:38;8.90;99.90
37702;DHT22;23548;51.196;6.838;2022-11-23T04:44:04;8.90;99.90
37702;DHT22;23548;51.196;6.838;2022-11-23T04:46:30;8.90;99.90
37702;DHT22;23548;51.196;6.838;2022-11-23T04:48:56;8.90;99.90
37702;DHT22;23548;51.196;6.838;2022-11-23T04:51:22;8.90;99.90
37702;DHT22;23548;51.196;6.838;2022-11-23T04:53:48;8.90;99.90
37702;DHT22;23548;51.196;6.838;2022-11-23T04:56:14;9.00;99.90
37702;DHT22;23548;51.196;6.838;2022-11-23T04:58:40;9.00;99.90
37702;DHT22;23548;51.196;6.838;2022-11-23T05:01:06;9.00;99.90
37702;DHT22;23548;51.196;6.838;2022-11-23T05:03:32;9.10;99.90
37702;DHT22;23548;51.196;6.838;2022-11-23T05:06:02;9.10;99.90
37702;DHT22;23548;51.196;6.838;2022-11-23T05:08:28;9.10;99.90
37702;DHT22;23548;51.196;6.838;2022-11-23T05:10:54;9.10;99.90
37702;DHT22;23548;51.196;6.838;2022-11-23T05:13:20;9.10;99.90
37702;DHT22;23548;51.196;6.838;2022-11-23T05:15:46;9.10;99.90
37702;DHT22;23548;51.196;6.838;2022-11-23T05:18:11;9.00;99.90
37702;DHT22;23548;51.196;6.838;2022-11-23T05:20:37;8.90;99.90
37702;DHT22;23548;51.196;6.838;2022-11-23T05:23:04;8.90;99.90
37702;DHT22;23548;51.196;6.838;2022-11-23T05:25:30;8.90;99.90
37702;DHT22;23548;51.196;6.838;2022-11-23T05:27:56;8.90;99.90
37702;DHT22;23548;51.196;6.838;2022-11-23T05:30:22;8.90;99.90
37702;DHT22;23548;51.196;6.838;2022-11-23T05:32:48;8.80;99.90
37702;DHT22;23548;51.196;6.838;2022-11-23T05:35:14;8.80;99.90
37702;DHT22;23548;51.196;6.838;2022-11-23T05:37:41;8.80;99.90
37702;DHT22;23548;51.196;6.838;2022-11-23T05:40:07;8.90;99.90
37702;DHT22;23548;51.196;6.838;2022-11-23T05:42:34;8.80;99.90
37702;DHT22;23548;51.196;6.838;2022-11-23T05:45:00;8.80;99.90
37702;DHT22;23548;51.196;6.838;2022-11-23T05:47:26;8.80;99.90
37702;DHT22;23548;51.196;6.838;2022-11-23T05:49:52;8.70;99.90
37702;DHT22;23548;51.196;6.838;2022-11-23T05:52:17;8.70;99.90
37702;DHT22;23548;51.196;6.838;2022-11-23T05:54:43;8.70;99.90
37702;DHT22;23548;51.196;6.838;2022-11-23T05:57:10;8.80;99.90
37702;DHT22;23548;51.196;6.838;2022-11-23T05:59:35;8.90;99.90
37702;DHT22;23548;51.196;6.838;2022-11-23T06:02:01;8.90;99.90
37702;DHT22;23548;51.196;6.838;2022-11-23T06:04:27;8.80;99.90
37702;DHT22;23548;51.196;6.838;2022-11-23T06:06:53;8.80;99.90
37702;DHT22;23548;51.196;6.838;2022-11-23T06:09:19;8.90;99.90
37702;DHT22;23548;51.196;6.838;2022-11-23T06:11:45;8.90;99.90
37702;DHT22;23548;51.196;6.838;2022-11-23T06:14:13;8.90;99.90
37702;DHT22;23548;51.196;6.838;2022-11-23T06:16:38;8.90;99.90
37702;DHT22;23548;51.196;6.838;2022-11-23T06:19:04;8.90;99.90
37702;DHT22;23548;51.196;6.838;2022-11-23T06:21:30;8.90;99.90
37702;DHT22;23548;51.196;6.838;2022-11-23T06:23:56;8.90;99.90
37702;DHT22;23548;51.196;6.838;2022-11-23T06:26:22;9.00;99.90
37702;DHT22;23548;51.196;6.838;2022-11-23T06:28:47;9.00;99.90
37702;DHT22;23548;51.196;6.838;2022-11-23T06:31:13;9.10;99.90
37702;DHT22;23548;51.196;6.838;2022-11-23T06:33:39;9.00;99.90
37702;DHT22;23548;51.196;6.838;2022-11-23T06:36:05;9.00;99.90
37702;DHT22;23548;51.196;6.838;2022-11-23T06:38:31;9.00;99.90
37702;DHT22;23548;51.196;6.838;2022-11-23T06:41:00;9.00;99.90
37702;DHT22;23548;51.196;6.838;2022-11-23T06:43:27;9.00;99.90
37702;DHT22;23548;51.196;6.838;2022-11-23T06:45:53;9.00;99.90
37702;DHT22;23548;51.196;6.838;2022-11-23T06:48:19;9.00;99.90
37702;DHT22;23548;51.196;6.838;2022-11-23T06:50:45;9.00;99.90
37702;DHT22;23548;51.196;6.838;2022-11-23T06:53:11;9.00;99.90
37702;DHT22;23548;51.196;6.838;2022-11-23T06:55:37;9.00;99.90
37702;DHT22;23548;51.196;6.838;2022-11-23T06:58:04;9.00;99.90
37702;DHT22;23548;51.196;6.838;2022-11-23T07:00:31;9.00;99.90
37702;DHT22;23548;51.196;6.838;2022-11-23T07:02:57;9.00;99.90
37702;DHT22;23548;51.196;6.838;2022-11-23T07:05:23;9.00;99.90
37702;DHT22;23548;51.196;6.838;2022-11-23T07:07:49;9.00;99.90
37702;DHT22;23548;51.196;6.838;2022-11-23T07:10:15;9.00;99.90
37702;DHT22;23548;51.196;6.838;2022-11-23T07:12:41;9.00;99.90
37702;DHT22;23548;51.196;6.838;2022-11-23T07:15:07;9.10;99.90
37702;DHT22;23548;51.196;6.838;2022-11-23T07:17:40;9.10;99.90
37702;DHT22;23548;51.196;6.838;2022-11-23T07:20:08;9.10;99.90
37702;DHT22;23548;51.196;6.838;2022-11-23T07:22:34;9.20;99.90
37702;DHT22;23548;51.196;6.838;2022-11-23T07:25:00;9.20;99.90
37702;DHT22;23548;51.196;6.838;2022-11-23T07:27:26;9.20;99.90
37702;DHT22;23548;51.196;6.838;2022-11-23T07:29:51;9.20;99.90
37702;DHT22;23548;51.196;6.838;2022-11-23T07:32:17;9.20;99.90
37702;DHT22;23548;51.196;6.838;2022-11-23T07:34:43;9.30;99.90
37702;DHT22;23548;51.196;6.838;2022-11-23T07:37:08;9.30;99.90
37702;DHT22;23548;51.196;6.838;2022-11-23T07:39:34;9.30;99.90
37702;DHT22;23548;51.196;6.838;2022-11-23T07:42:00;9.20;99.90
37702;DHT22;23548;51.196;6.838;2022-11-23T07:44:26;9.20;99.90
37702;DHT22;23548;51.196;6.838;2022-11-23T07:46:52;9.30;99.90
37702;DHT22;23548;51.196;6.838;2022-11-23T07:49:18;9.30;99.90
37702;DHT22;23548;51.196;6.838;2022-11-23T07:51:44;9.40;99.90
37702;DHT22;23548;51.196;6.838;2022-11-23T07:54:09;9.40;99.90
37702;DHT22;23548;51.196;6.838;2022-11-23T07:56:35;9.50;99.90
37702;DHT22;23548;51.196;6.838;2022-11-23T07:59:01;9.50;99.90
37702;DHT22;23548;51.196;6.838;2022-11-23T08:01:26;9.50;99.90
37702;DHT22;23548;51.196;6.838;2022-11-23T08:03:52;9.50;99.90
37702;DHT22;23548;51.196;6.838;2022-11-23T08:06:18;9.60;99.90
37702;DHT22;23548;51.196;6.838;2022-11-23T08:08:44;9.60;99.90
37702;DHT22;23548;51.196;6.838;2022-11-23T08:11:10;9.70;99.90
37702;DHT22;23548;51.196;6.838;2022-11-23T08:13:39;9.80;99.90
37702;DHT22;23548;51.196;6.838;2022-11-23T08:16:05;9.80;99.90
37702;DHT22;23548;51.196;6.838;2022-11-23T08:18:31;9.80;99.90
37702;DHT22;23548;51.196;6.838;2022-11-23T08:21:00;9.80;99.90
37702;DHT22;23548;51.196;6.838;2022-11-23T08:23:26;9.70;99.90
37702;DHT22;23548;51.196;6.838;2022-11-23T08:25:52;9.60;99.90
37702;DHT22;23548;51.196;6.838;2022-11-23T08:28:18;9.50;99.90
37702;DHT22;23548;51.196;6.838;2022-11-23T08:30:44;9.50;99.90
37702;DHT22;23548;51.196;6.838;2022-11-23T08:33:11;9.40;99.90
37702;DHT22;23548;51.196;6.838;2022-11-23T08:35:39;9.40;99.90
37702;DHT22;23548;51.196;6.838;2022-11-23T08:38:06;9.40;99.90
37702;DHT22;23548;51.196;6.838;2022-11-23T08:40:32;9.40;99.90
37702;DHT22;23548;51.196;6.838;2022-11-23T08:42:58;9.30;99.90
37702;DHT22;23548;51.196;6.838;2022-11-23T08:45:25;9.30;99.90
37702;DHT22;23548;51.196;6.838;2022-11-23T08:47:51;9.40;99.90
37702;DHT22;23548;51.196;6.838;2022-11-23T08:50:18;9.40;99.90
37702;DHT22;23548;51.196;6.838;2022-11-23T08:52:44;9.40;99.90
37702;DHT22;23548;51.196;6.838;2022-11-23T08:55:10;9.40;99.90
37702;DHT22;23548;51.196;6.838;2022-11-23T08:57:36;9.40;99.90
37702;DHT22;23548;51.196;6.838;2022-11-23T09:00:03;9.40;99.90
37702;DHT22;23548;51.196;6.838;2022-11-23T09:02:29;9.40;99.90
37702;DHT22;23548;51.196;6.838;2022-11-23T09:04:55;9.50;99.90
37702;DHT22;23548;51.196;6.838;2022-11-23T09:07:20;9.50;99.90
37702;DHT22;23548;51.196;6.838;2022-11-23T09:09:46;9.50;99.90
37702;DHT22;23548;51.196;6.838;2022-11-23T09:12:12;9.50;99.90
37702;DHT22;23548;51.196;6.838;2022-11-23T09:14:38;9.50;99.90
37702;DHT22;23548;51.196;6.838;2022-11-23T09:17:04;9.60;99.90
37702;DHT22;23548;51.196;6.838;2022-11-23T09:19:30;9.60;99.90
37702;DHT22;23548;51.196;6.838;2022-11-23T09:21:56;9.60;99.90
37702;DHT22;23548;51.196;6.838;2022-11-23T09:24:22;9.60;99.90
37702;DHT22;23548;51.196;6.838;2022-11-23T09:26:48;9.70;99.90
37702;DHT22;23548;51.196;6.838;2022-11-23T09:29:14;9.70;99.90
37702;DHT22;23548;51.196;6.838;2022-11-23T09:31:39;9.70;99.90
37702;DHT22;23548;51.196;6.838;2022-11-23T09:34:05;9.80;99.90
37702;DHT22;23548;51.196;6.838;2022-11-23T09:39:53;9.80;99.90
37702;DHT22;23548;51.196;6.838;2022-11-23T09:45:46;9.90;99.90
37702;DHT22;23548;51.196;6.838;2022-11-23T09:51:30;10.10;99.90
37702;DHT22;23548;51.196;6.838;2022-11-23T09:53:59;10.20;99.90
37702;DHT22;23548;51.196;6.838;2022-11-23T09:56:38;10.30;99.90
37702;DHT22;23548;51.196;6.838;2022-11-23T10:01:43;10.40;99.90
37702;DHT22;23548;51.196;6.838;2022-11-23T10:04:16;10.50;99.90
37702;DHT22;23548;51.196;6.838;2022-11-23T10:06:43;10.40;99.90
37702;DHT22;23548;51.196;6.838;2022-11-23T10:25:20;10.10;99.90
37702;DHT22;23548;51.196;6.838;2022-11-23T10:27:48;10.00;99.90
37702;DHT22;23548;51.196;6.838;2022-11-23T10:30:16;9.90;99.90
37702;DHT22;23548;51.196;6.838;2022-11-23T10:35:31;10.20;99.90
37702;DHT22;23548;51.196;6.838;2022-11-23T10:38:13;10.40;99.90
37702;DHT22;23548;51.196;6.838;2022-11-23T10:40:44;10.70;99.90
37702;DHT22;23548;51.196;6.838;2022-11-23T10:43:19;10.90;99.90
37702;DHT22;23548;51.196;6.838;2022-11-23T10:45:46;10.90;99.90
37702;DHT22;23548;51.196;6.838;2022-11-23T10:51:36;11.00;99.90
37702;DHT22;23548;51.196;6.838;2022-11-23T10:54:05;11.10;99.90
37702;DHT22;23548;51.196;6.838;2022-11-23T10:56:32;11.10;99.90
37702;DHT22;23548;51.196;6.838;2022-11-23T10:58:59;11.30;99.90
37702;DHT22;23548;51.196;6.838;2022-11-23T11:01:26;11.20;99.90
37702;DHT22;23548;51.196;6.838;2022-11-23T11:03:55;11.20;99.90
37702;DHT22;23548;51.196;6.838;2022-11-23T11:06:30;11.00;99.90
37702;DHT22;23548;51.196;6.838;2022-11-23T11:09:02;11.00;99.90
37702;DHT22;23548;51.196;6.838;2022-11-23T11:11:31;10.90;99.90
37702;DHT22;23548;51.196;6.838;2022-11-23T11:14:21;10.80;99.90
37702;DHT22;23548;51.196;6.838;2022-11-23T11:19:34;10.70;99.90
37702;DHT22;23548;51.196;6.838;2022-11-23T11:22:28;10.80;99.90
37702;DHT22;23548;51.196;6.838;2022-11-23T11:24:57;10.90;99.90
37702;DHT22;23548;51.196;6.838;2022-11-23T11:27:25;10.80;99.90
37702;DHT22;23548;51.196;6.838;2022-11-23T11:29:55;10.80;99.90
37702;DHT22;23548;51.196;6.838;2022-11-23T11:37:58;10.90;99.90
37702;DHT22;23548;51.196;6.838;2022-11-23T11:40:33;10.90;99.90
37702;DHT22;23548;51.196;6.838;2022-11-23T11:45:42;11.10;99.90
37702;DHT22;23548;51.196;6.838;2022-11-23T11:48:23;11.10;99.90
37702;DHT22;23548;51.196;6.838;2022-11-23T11:50:55;11.30;99.90
37702;DHT22;23548;51.196;6.838;2022-11-23T11:53:26;11.20;99.90
37702;DHT22;23548;51.196;6.838;2022-11-23T11:55:57;11.30;99.90
37702;DHT22;23548;51.196;6.838;2022-11-23T11:58:24;11.50;99.90
37702;DHT22;23548;51.196;6.838;2022-11-23T12:01:00;11.50;99.90
37702;DHT22;23548;51.196;6.838;2022-11-23T12:03:46;11.40;99.90
37702;DHT22;23548;51.196;6.838;2022-11-23T12:06:36;11.50;99.90
37702;DHT22;23548;51.196;6.838;2022-11-23T12:09:10;11.60;99.90
37702;DHT22;23548;51.196;6.838;2022-11-23T12:11:37;11.80;99.90
37702;DHT22;23548;51.196;6.838;2022-11-23T12:14:04;11.90;99.90
37702;DHT22;23548;51.196;6.838;2022-11-23T12:36:56;12.00;99.90
37702;DHT22;23548;51.196;6.838;2022-11-23T12:39:47;12.20;99.90
37702;DHT22;23548;51.196;6.838;2022-11-23T12:51:08;12.00;99.90
37702;DHT22;23548;51.196;6.838;2022-11-23T12:53:57;11.90;99.90
37702;DHT22;23548;51.196;6.838;2022-11-23T12:56:55;11.90;99.90
37702;DHT22;23548;51.196;6.838;2022-11-23T12:59:28;11.70;99.90
37702;DHT22;23548;51.196;6.838;2022-11-23T13:01:59;11.50;99.90
37702;DHT22;23548;51.196;6.838;2022-11-23T13:09:52;11.20;99.90
37702;DHT22;23548;51.196;6.838;2022-11-23T13:12:53;11.10;99.90
37702;DHT22;23548;51.196;6.838;2022-11-23T13:15:59;11.10;99.90
37702;DHT22;23548;51.196;6.838;2022-11-23T13:23:58;11.00;99.90
37702;DHT22;23548;51.196;6.838;2022-11-23T13:26:30;11.00;99.90
37702;DHT22;23548;51.196;6.838;2022-11-23T13:28:59;11.00;99.90
37702;DHT22;23548;51.196;6.838;2022-11-23T13:31:42;11.10;99.90
37702;DHT22;23548;51.196;6.838;2022-11-23T13:34:46;10.90;99.90
37702;DHT22;23548;51.196;6.838;2022-11-23T13:37:13;10.90;99.90
37702;DHT22;23548;51.196;6.838;2022-11-23T13:42:26;10.90;99.90
37702;DHT22;23548;51.196;6.838;2022-11-23T13:50:59;10.80;99.90
37702;DHT22;23548;51.196;6.838;2022-11-23T13:53:40;10.60;99.90
37702;DHT22;23548;51.196;6.838;2022-11-23T13:56:22;10.60;99.90
37702;DHT22;23548;51.196;6.838;2022-11-23T13:58:59;10.70;99.90
37702;DHT22;23548;51.196;6.838;2022-11-23T14:04:44;10.80;99.90
37702;DHT22;23548;51.196;6.838;2022-11-23T14:07:32;10.80;99.90
37702;DHT22;23548;51.196;6.838;2022-11-23T14:10:29;10.80;99.90
37702;DHT22;23548;51.196;6.838;2022-11-23T14:13:07;10.70;99.90
37702;DHT22;23548;51.196;6.838;2022-11-23T14:15:40;10.60;99.90
37702;DHT22;23548;51.196;6.838;2022-11-23T14:24:34;10.50;99.90
37702;DHT22;23548;51.196;6.838;2022-11-23T14:33:42;10.40;99.90
37702;DHT22;23548;51.196;6.838;2022-11-23T14:36:36;10.40;99.90
37702;DHT22;23548;51.196;6.838;2022-11-23T14:42:17;10.40;99.90
37702;DHT22;23548;51.196;6.838;2022-11-23T14:44:46;10.40;99.90
37702;DHT22;23548;51.196;6.838;2022-11-23T14:47:12;10.50;99.90
37702;DHT22;23548;51.196;6.838;2022-11-23T14:49:52;10.50;99.90
37702;DHT22;23548;51.196;6.838;2022-11-23T14:52:21;10.50;99.90
37702;DHT22;23548;51.196;6.838;2022-11-23T14:54:54;10.50;99.90
37702;DHT22;23548;51.196;6.838;2022-11-23T14:57:41;10.60;99.90
37702;DHT22;23548;51.196;6.838;2022-11-23T15:00:42;10.60;99.90
37702;DHT22;23548;51.196;6.838;2022-11-23T15:03:12;10.50;99.90
37702;DHT22;23548;51.196;6.838;2022-11-23T15:05:48;10.50;99.90
37702;DHT22;23548;51.196;6.838;2022-11-23T15:09:03;10.40;99.90
37702;DHT22;23548;51.196;6.838;2022-11-23T15:11:45;10.40;99.90
37702;DHT22;23548;51.196;6.838;2022-11-23T15:14:24;10.40;99.90
37702;DHT22;23548;51.196;6.838;2022-11-23T15:16:51;10.40;99.90
37702;DHT22;23548;51.196;6.838;2022-11-23T15:19:29;10.20;99.90
37702;DHT22;23548;51.196;6.838;2022-11-23T15:21:56;10.20;99.90
37702;DHT22;23548;51.196;6.838;2022-11-23T15:24:24;10.10;99.90
37702;DHT22;23548;51.196;6.838;2022-11-23T15:27:13;10.00;99.90
37702;DHT22;23548;51.196;6.838;2022-11-23T15:29:50;9.90;99.90
37702;DHT22;23548;51.196;6.838;2022-11-23T15:32:34;9.80;99.90
37702;DHT22;23548;51.196;6.838;2022-11-23T15:35:13;9.70;99.90
37702;DHT22;23548;51.196;6.838;2022-11-23T15:37:46;9.70;99.90
37702;DHT22;23548;51.196;6.838;2022-11-23T15:40:19;9.70;99.90
37702;DHT22;23548;51.196;6.838;2022-11-23T15:42:48;9.60;99.90
37702;DHT22;23548;51.196;6.838;2022-11-23T15:50:59;9.30;99.90
37702;DHT22;23548;51.196;6.838;2022-11-23T15:54:12;9.30;99.90
37702;DHT22;23548;51.196;6.838;2022-11-23T15:56:32;9.20;99.90
37702;DHT22;23548;51.196;6.838;2022-11-23T15:59:29;9.10;99.90
37702;DHT22;23548;51.196;6.838;2022-11-23T16:02:04;8.90;99.90
37702;DHT22;23548;51.196;6.838;2022-11-23T16:04:38;8.90;99.90
37702;DHT22;23548;51.196;6.838;2022-11-23T16:07:20;8.90;99.90
37702;DHT22;23548;51.196;6.838;2022-11-23T16:10:09;8.80;99.90
37702;DHT22;23548;51.196;6.838;2022-11-23T16:13:01;8.80;99.90
37702;DHT22;23548;51.196;6.838;2022-11-23T16:18:22;8.80;99.90
37702;DHT22;23548;51.196;6.838;2022-11-23T16:21:03;8.70;99.90
37702;DHT22;23548;51.196;6.838;2022-11-23T16:23:53;8.70;99.90
37702;DHT22;23548;51.196;6.838;2022-11-23T16:26:42;8.70;99.90
37702;DHT22;23548;51.196;6.838;2022-11-23T16:29:28;8.80;99.90
37702;DHT22;23548;51.196;6.838;2022-11-23T16:32:01;8.70;99.90
37702;DHT22;23548;51.196;6.838;2022-11-23T16:34:28;8.70;99.90
37702;DHT22;23548;51.196;6.838;2022-11-23T16:36:55;8.70;99.90
37702;DHT22;23548;51.196;6.838;2022-11-23T16:39:30;8.70;99.90
37702;DHT22;23548;51.196;6.838;2022-11-23T16:41:58;8.70;99.90
37702;DHT22;23548;51.196;6.838;2022-11-23T16:44:24;8.60;99.90
37702;DHT22;23548;51.196;6.838;2022-11-23T16:46:50;8.70;99.90
37702;DHT22;23548;51.196;6.838;2022-11-23T16:49:18;8.70;99.90
37702;DHT22;23548;51.196;6.838;2022-11-23T16:51:54;8.70;99.90
37702;DHT22;23548;51.196;6.838;2022-11-23T16:54:21;8.70;99.90
37702;DHT22;23548;51.196;6.838;2022-11-23T16:56:47;8.60;99.90
37702;DHT22;23548;51.196;6.838;2022-11-23T16:59:18;8.60;99.90
37702;DHT22;23548;51.196;6.838;2022-11-23T17:01:51;8.60;99.90
37702;DHT22;23548;51.196;6.838;2022-11-23T17:04:21;8.60;99.90
37702;DHT22;23548;51.196;6.838;2022-11-23T17:06:47;8.60;99.90
37702;DHT22;23548;51.196;6.838;2022-11-23T17:09:13;8.50;99.90
37702;DHT22;23548;51.196;6.838;2022-11-23T17:11:47;8.50;99.90
37702;DHT22;23548;51.196;6.838;2022-11-23T17:14:16;8.50;99.90
37702;DHT22;23548;51.196;6.838;2022-11-23T17:16:43;8.50;99.90
37702;DHT22;23548;51.196;6.838;2022-11-23T17:19:19;8.50;99.90
37702;DHT22;23548;51.196;6.838;2022-11-23T17:21:47;8.50;99.90
37702;DHT22;23548;51.196;6.838;2022-11-23T17:24:16;8.40;99.90
37702;DHT22;23548;51.196;6.838;2022-11-23T17:26:50;8.40;99.90
37702;DHT22;23548;51.196;6.838;2022-11-23T17:29:18;8.40;99.90
37702;DHT22;23548;51.196;6.838;2022-11-23T17:31:54;8.40;99.90
37702;DHT22;23548;51.196;6.838;2022-11-23T17:34:20;8.40;99.90
37702;DHT22;23548;51.196;6.838;2022-11-23T17:36:50;8.30;99.90
37702;DHT22;23548;51.196;6.838;2022-11-23T17:39:45;8.30;99.90
37702;DHT22;23548;51.196;6.838;2022-11-23T17:42:15;8.30;99.90
37702;DHT22;23548;51.196;6.838;2022-11-23T17:44:46;8.30;99.90
37702;DHT22;23548;51.196;6.838;2022-11-23T17:47:45;8.30;99.90
37702;DHT22;23548;51.196;6.838;2022-11-23T17:50:17;8.30;99.90
37702;DHT22;23548;51.196;6.838;2022-11-23T17:52:53;8.20;99.90
37702;DHT22;23548;51.196;6.838;2022-11-23T17:55:25;8.20;99.90
37702;DHT22;23548;51.196;6.838;2022-11-23T17:57:55;8.10;99.90
37702;DHT22;23548;51.196;6.838;2022-11-23T18:00:26;8.10;99.90
37702;DHT22;23548;51.196;6.838;2022-11-23T18:02:53;8.10;99.90
37702;DHT22;23548;51.196;6.838;2022-11-23T18:05:31;8.10;99.90
37702;DHT22;23548;51.196;6.838;2022-11-23T18:07:58;8.10;99.90